sensor_id;sensor_type;location;lat;lon;timestamp;P1;durP1;ratioP1;P2;durP2;ratioP2
74789;SDS011;63318;52.406;13.416;2022-09-09T00:02:00;5.10;;;3.30;;
74789;SDS011;63318;52.406;13.416;2022-09-09T00:04:32;5.20;;;3.30;;
74789;SDS011;63318;52.406;13.416;2022-09-09T00:07:03;5.10;;;3.40;;
74789;SDS011;63318;52.406;13.416;2022-09-09T00:09:39;6.70;;;3.80;;
74789;SDS011;63318;52.406;13.416;2022-09-09T00:12:12;5.30;;;3.10;;
74789;SDS011;63318;52.406;13.416;2022-09-09T00:14:50;7.70;;;3.40;;
74789;SDS011;63318;52.406;13.416;2022-09-09T00:17:25;8.00;;;3.30;;
74789;SDS011;63318;52.406;13.416;2022-09-09T00:20:04;4.70;;;3.00;;
74789;SDS011;63318;52.406;13.416;2022-09-09T00:22:40;5.10;;;3.30;;
74789;SDS011;63318;52.406;13.416;2022-09-09T00:25:15;4.90;;;3.00;;
74789;SDS011;63318;52.406;13.416;2022-09-09T00:27:50;4.80;;;3.50;;
74789;SDS011;63318;52.406;13.416;2022-09-09T00:30:19;5.60;;;3.00;;
74789;SDS011;63318;52.406;13.416;2022-09-09T00:32:50;4.80;;;3.10;;
74789;SDS011;63318;52.406;13.416;2022-09-09T00:35:21;6.10;;;3.10;;
74789;SDS011;63318;52.406;13.416;2022-09-09T00:37:51;5.30;;;3.00;;
74789;SDS011;63318;52.406;13.416;2022-09-09T00:42:54;5.10;;;3.20;;
74789;SDS011;63318;52.406;13.416;2022-09-09T00:45:39;5.10;;;3.20;;
74789;SDS011;63318;52.406;13.416;2022-09-09T00:48:22;4.70;;;2.60;;
74789;SDS011;63318;52.406;13.416;2022-09-09T00:51:02;5.10;;;2.90;;
74789;SDS011;63318;52.406;13.416;2022-09-09T00:53:37;4.80;;;3.30;;
74789;SDS011;63318;52.406;13.416;2022-09-09T00:56:12;4.60;;;3.00;;
74789;SDS011;63318;52.406;13.416;2022-09-09T00:58:43;4.70;;;3.00;;
74789;SDS011;63318;52.406;13.416;2022-09-09T01:01:21;5.10;;;2.90;;
74789;SDS011;63318;52.406;13.416;2022-09-09T01:03:51;5.60;;;2.90;;
74789;SDS011;63318;52.406;13.416;2022-09-09T01:06:22;6.10;;;2.30;;
74789;SDS011;63318;52.406;13.416;2022-09-09T01:09:04;3.80;;;2.50;;
74789;SDS011;63318;52.406;13.416;2022-09-09T01:11:41;3.60;;;1.90;;
74789;SDS011;63318;52.406;13.416;2022-09-09T01:14:19;3.50;;;1.90;;
74789;SDS011;63318;52.406;13.416;2022-09-09T01:16:58;4.10;;;1.80;;
74789;SDS011;63318;52.406;13.416;2022-09-09T01:19:33;5.20;;;1.90;;
74789;SDS011;63318;52.406;13.416;2022-09-09T01:22:13;4.60;;;2.10;;
74789;SDS011;63318;52.406;13.416;2022-09-09T01:24:52;3.80;;;1.90;;
74789;SDS011;63318;52.406;13.416;2022-09-09T01:27:37;3.30;;;1.70;;
74789;SDS011;63318;52.406;13.416;2022-09-09T01:30:07;5.00;;;2.30;;
74789;SDS011;63318;52.406;13.416;2022-09-09T01:32:40;4.40;;;1.90;;
74789;SDS011;63318;52.406;13.416;2022-09-09T01:35:10;6.70;;;2.00;;
74789;SDS011;63318;52.406;13.416;2022-09-09T01:37:42;5.70;;;1.90;;
74789;SDS011;63318;52.406;13.416;2022-09-09T01:40:10;4.80;;;2.50;;
74789;SDS011;63318;52.406;13.416;2022-09-09T01:42:39;4.80;;;2.30;;
74789;SDS011;63318;52.406;13.416;2022-09-09T01:45:08;4.30;;;2.60;;
74789;SDS011;63318;52.406;13.416;2022-09-09T01:47:37;4.10;;;2.20;;
74789;SDS011;63318;52.406;13.416;2022-09-09T01:50:05;4.40;;;2.80;;
74789;SDS011;63318;52.406;13.416;2022-09-09T01:52:36;4.80;;;2.30;;
74789;SDS011;63318;52.406;13.416;2022-09-09T01:55:06;4.10;;;2.20;;
74789;SDS011;63318;52.406;13.416;2022-09-09T01:57:36;4.30;;;2.40;;
74789;SDS011;63318;52.406;13.416;2022-09-09T02:00:12;5.50;;;2.40;;
74789;SDS011;63318;52.406;13.416;2022-09-09T02:02:44;4.10;;;2.30;;
74789;SDS011;63318;52.406;13.416;2022-09-09T02:05:26;7.00;;;2.50;;
74789;SDS011;63318;52.406;13.416;2022-09-09T02:08:05;5.10;;;2.20;;
74789;SDS011;63318;52.406;13.416;2022-09-09T02:10:37;4.40;;;2.50;;
74789;SDS011;63318;52.406;13.416;2022-09-09T02:13:12;4.30;;;2.40;;
74789;SDS011;63318;52.406;13.416;2022-09-09T02:15:45;4.70;;;2.60;;
74789;SDS011;63318;52.406;13.416;2022-09-09T02:18:19;5.00;;;2.50;;
74789;SDS011;63318;52.406;13.416;2022-09-09T02:20:53;5.00;;;3.20;;
74789;SDS011;63318;52.406;13.416;2022-09-09T02:23:22;4.60;;;2.70;;
74789;SDS011;63318;52.406;13.416;2022-09-09T02:25:51;6.00;;;3.10;;
74789;SDS011;63318;52.406;13.416;2022-09-09T02:28:22;6.50;;;3.20;;
74789;SDS011;63318;52.406;13.416;2022-09-09T02:30:54;4.90;;;2.90;;
74789;SDS011;63318;52.406;13.416;2022-09-09T02:33:24;4.40;;;2.70;;
74789;SDS011;63318;52.406;13.416;2022-09-09T02:35:54;5.60;;;3.20;;
74789;SDS011;63318;52.406;13.416;2022-09-09T02:38:25;11.60;;;4.00;;
74789;SDS011;63318;52.406;13.416;2022-09-09T02:40:58;4.80;;;2.80;;
74789;SDS011;63318;52.406;13.416;2022-09-09T02:43:30;5.40;;;2.90;;
74789;SDS011;63318;52.406;13.416;2022-09-09T02:46:02;6.20;;;3.30;;
74789;SDS011;63318;52.406;13.416;2022-09-09T02:48:39;4.70;;;3.00;;
74789;SDS011;63318;52.406;13.416;2022-09-09T02:51:15;6.20;;;3.20;;
74789;SDS011;63318;52.406;13.416;2022-09-09T02:53:51;5.60;;;3.10;;
74789;SDS011;63318;52.406;13.416;2022-09-09T02:56:27;5.60;;;3.10;;
74789;SDS011;63318;52.406;13.416;2022-09-09T02:59:04;6.50;;;3.20;;
74789;SDS011;63318;52.406;13.416;2022-09-09T03:01:32;5.00;;;3.40;;
74789;SDS011;63318;52.406;13.416;2022-09-09T03:04:01;5.00;;;3.30;;
74789;SDS011;63318;52.406;13.416;2022-09-09T03:06:29;6.90;;;3.60;;
74789;SDS011;63318;52.406;13.416;2022-09-09T03:08:58;5.10;;;3.00;;
74789;SDS011;63318;52.406;13.416;2022-09-09T03:11:26;4.70;;;2.90;;
74789;SDS011;63318;52.406;13.416;2022-09-09T03:13:54;5.90;;;3.30;;
74789;SDS011;63318;52.406;13.416;2022-09-09T03:16:23;6.10;;;2.90;;
74789;SDS011;63318;52.406;13.416;2022-09-09T03:18:51;7.50;;;3.10;;
74789;SDS011;63318;52.406;13.416;2022-09-09T03:21:19;5.10;;;2.90;;
74789;SDS011;63318;52.406;13.416;2022-09-09T03:23:47;7.30;;;2.90;;
74789;SDS011;63318;52.406;13.416;2022-09-09T03:26:15;5.60;;;3.40;;
74789;SDS011;63318;52.406;13.416;2022-09-09T03:28:44;6.30;;;2.80;;
74789;SDS011;63318;52.406;13.416;2022-09-09T03:31:12;5.90;;;3.00;;
74789;SDS011;63318;52.406;13.416;2022-09-09T03:33:40;7.20;;;3.10;;
74789;SDS011;63318;52.406;13.416;2022-09-09T03:36:08;4.80;;;3.20;;
74789;SDS011;63318;52.406;13.416;2022-09-09T03:38:37;8.90;;;3.50;;
74789;SDS011;63318;52.406;13.416;2022-09-09T03:41:05;6.00;;;3.20;;
74789;SDS011;63318;52.406;13.416;2022-09-09T03:43:34;6.80;;;3.20;;
74789;SDS011;63318;52.406;13.416;2022-09-09T03:46:02;5.90;;;3.40;;
74789;SDS011;63318;52.406;13.416;2022-09-09T03:48:30;6.00;;;3.50;;
74789;SDS011;63318;52.406;13.416;2022-09-09T03:50:58;5.90;;;3.40;;
74789;SDS011;63318;52.406;13.416;2022-09-09T03:53:27;5.50;;;2.60;;
74789;SDS011;63318;52.406;13.416;2022-09-09T03:55:56;5.40;;;3.00;;
74789;SDS011;63318;52.406;13.416;2022-09-09T03:58:25;5.40;;;2.90;;
74789;SDS011;63318;52.406;13.416;2022-09-09T04:00:54;5.30;;;2.70;;
74789;SDS011;63318;52.406;13.416;2022-09-09T04:03:24;5.60;;;2.50;;
74789;SDS011;63318;52.406;13.416;2022-09-09T04:05:53;4.60;;;2.40;;
74789;SDS011;63318;52.406;13.416;2022-09-09T04:08:22;4.70;;;2.70;;
74789;SDS011;63318;52.406;13.416;2022-09-09T04:10:51;4.60;;;2.90;;
74789;SDS011;63318;52.406;13.416;2022-09-09T04:13:20;4.70;;;2.60;;
74789;SDS011;63318;52.406;13.416;2022-09-09T04:15:51;4.80;;;2.90;;
74789;SDS011;63318;52.406;13.416;2022-09-09T04:18:20;5.00;;;3.10;;
74789;SDS011;63318;52.406;13.416;2022-09-09T04:20:50;5.80;;;3.40;;
74789;SDS011;63318;52.406;13.416;2022-09-09T04:23:19;4.30;;;2.80;;
74789;SDS011;63318;52.406;13.416;2022-09-09T04:25:48;4.60;;;3.10;;
74789;SDS011;63318;52.406;13.416;2022-09-09T04:28:17;5.30;;;3.00;;
74789;SDS011;63318;52.406;13.416;2022-09-09T04:30:47;4.80;;;2.80;;
74789;SDS011;63318;52.406;13.416;2022-09-09T04:33:15;6.30;;;2.90;;
74789;SDS011;63318;52.406;13.416;2022-09-09T04:35:45;4.40;;;2.50;;
74789;SDS011;63318;52.406;13.416;2022-09-09T04:38:14;5.40;;;2.70;;
74789;SDS011;63318;52.406;13.416;2022-09-09T04:40:43;4.90;;;2.50;;
74789;SDS011;63318;52.406;13.416;2022-09-09T04:43:12;7.00;;;2.80;;
74789;SDS011;63318;52.406;13.416;2022-09-09T04:45:41;5.00;;;2.70;;
74789;SDS011;63318;52.406;13.416;2022-09-09T04:48:10;5.00;;;2.70;;
74789;SDS011;63318;52.406;13.416;2022-09-09T04:50:38;5.20;;;2.80;;
74789;SDS011;63318;52.406;13.416;2022-09-09T04:53:06;5.10;;;2.60;;
74789;SDS011;63318;52.406;13.416;2022-09-09T04:55:36;4.40;;;2.60;;
74789;SDS011;63318;52.406;13.416;2022-09-09T04:58:04;5.60;;;3.10;;
74789;SDS011;63318;52.406;13.416;2022-09-09T05:00:34;7.10;;;3.10;;
74789;SDS011;63318;52.406;13.416;2022-09-09T05:03:03;6.30;;;2.90;;
74789;SDS011;63318;52.406;13.416;2022-09-09T05:05:32;5.30;;;2.90;;
74789;SDS011;63318;52.406;13.416;2022-09-09T05:08:02;6.30;;;3.00;;
74789;SDS011;63318;52.406;13.416;2022-09-09T05:10:31;6.70;;;2.30;;
74789;SDS011;63318;52.406;13.416;2022-09-09T05:12:59;6.80;;;3.10;;
74789;SDS011;63318;52.406;13.416;2022-09-09T05:15:28;5.40;;;2.50;;
74789;SDS011;63318;52.406;13.416;2022-09-09T05:17:58;6.40;;;3.10;;
74789;SDS011;63318;52.406;13.416;2022-09-09T05:20:27;6.40;;;2.70;;
74789;SDS011;63318;52.406;13.416;2022-09-09T05:22:55;4.40;;;2.30;;
74789;SDS011;63318;52.406;13.416;2022-09-09T05:25:24;6.70;;;2.50;;
74789;SDS011;63318;52.406;13.416;2022-09-09T05:27:52;6.10;;;2.80;;
74789;SDS011;63318;52.406;13.416;2022-09-09T05:30:21;5.00;;;2.50;;
74789;SDS011;63318;52.406;13.416;2022-09-09T05:32:49;7.50;;;2.80;;
74789;SDS011;63318;52.406;13.416;2022-09-09T05:35:17;4.80;;;2.90;;
74789;SDS011;63318;52.406;13.416;2022-09-09T05:37:45;5.30;;;2.60;;
74789;SDS011;63318;52.406;13.416;2022-09-09T05:40:14;6.30;;;3.10;;
74789;SDS011;63318;52.406;13.416;2022-09-09T05:42:42;5.80;;;2.80;;
74789;SDS011;63318;52.406;13.416;2022-09-09T05:45:10;7.00;;;2.60;;
74789;SDS011;63318;52.406;13.416;2022-09-09T05:47:39;4.60;;;2.90;;
74789;SDS011;63318;52.406;13.416;2022-09-09T05:50:07;7.40;;;3.60;;
74789;SDS011;63318;52.406;13.416;2022-09-09T05:52:36;4.70;;;3.10;;
74789;SDS011;63318;52.406;13.416;2022-09-09T05:55:05;6.90;;;3.10;;
74789;SDS011;63318;52.406;13.416;2022-09-09T05:57:34;4.90;;;2.20;;
74789;SDS011;63318;52.406;13.416;2022-09-09T06:00:03;7.40;;;3.00;;
74789;SDS011;63318;52.406;13.416;2022-09-09T06:02:32;4.00;;;2.10;;
74789;SDS011;63318;52.406;13.416;2022-09-09T06:05:00;4.80;;;2.30;;
74789;SDS011;63318;52.406;13.416;2022-09-09T06:07:29;4.90;;;2.30;;
74789;SDS011;63318;52.406;13.416;2022-09-09T06:09:57;5.70;;;2.20;;
74789;SDS011;63318;52.406;13.416;2022-09-09T06:12:25;4.60;;;1.90;;
74789;SDS011;63318;52.406;13.416;2022-09-09T06:14:53;5.20;;;2.20;;
74789;SDS011;63318;52.406;13.416;2022-09-09T06:17:21;4.30;;;2.10;;
74789;SDS011;63318;52.406;13.416;2022-09-09T06:19:50;5.00;;;2.00;;
74789;SDS011;63318;52.406;13.416;2022-09-09T06:22:18;5.20;;;2.20;;
74789;SDS011;63318;52.406;13.416;2022-09-09T06:24:46;4.70;;;2.10;;
74789;SDS011;63318;52.406;13.416;2022-09-09T06:27:14;6.80;;;2.50;;
74789;SDS011;63318;52.406;13.416;2022-09-09T06:29:42;4.50;;;1.90;;
74789;SDS011;63318;52.406;13.416;2022-09-09T06:32:11;4.30;;;2.00;;
74789;SDS011;63318;52.406;13.416;2022-09-09T06:34:39;6.00;;;2.00;;
74789;SDS011;63318;52.406;13.416;2022-09-09T06:37:07;4.90;;;1.90;;
74789;SDS011;63318;52.406;13.416;2022-09-09T06:39:35;4.40;;;1.70;;
74789;SDS011;63318;52.406;13.416;2022-09-09T06:42:03;5.20;;;1.90;;
74789;SDS011;63318;52.406;13.416;2022-09-09T06:44:32;6.30;;;2.10;;
74789;SDS011;63318;52.406;13.416;2022-09-09T06:47:00;4.00;;;1.70;;
74789;SDS011;63318;52.406;13.416;2022-09-09T06:49:28;5.70;;;2.30;;
74789;SDS011;63318;52.406;13.416;2022-09-09T06:51:56;5.60;;;2.00;;
74789;SDS011;63318;52.406;13.416;2022-09-09T06:54:25;8.80;;;2.50;;
74789;SDS011;63318;52.406;13.416;2022-09-09T06:56:53;4.90;;;2.10;;
74789;SDS011;63318;52.406;13.416;2022-09-09T06:59:21;6.30;;;2.10;;
74789;SDS011;63318;52.406;13.416;2022-09-09T07:01:49;4.20;;;2.10;;
74789;SDS011;63318;52.406;13.416;2022-09-09T07:04:17;4.30;;;1.70;;
74789;SDS011;63318;52.406;13.416;2022-09-09T07:06:45;6.60;;;1.80;;
74789;SDS011;63318;52.406;13.416;2022-09-09T07:09:14;3.60;;;1.50;;
74789;SDS011;63318;52.406;13.416;2022-09-09T07:11:43;6.30;;;2.10;;
74789;SDS011;63318;52.406;13.416;2022-09-09T07:14:13;4.90;;;1.80;;
74789;SDS011;63318;52.406;13.416;2022-09-09T07:16:42;5.90;;;1.60;;
74789;SDS011;63318;52.406;13.416;2022-09-09T07:19:12;3.90;;;1.50;;
74789;SDS011;63318;52.406;13.416;2022-09-09T07:21:41;4.40;;;1.40;;
74789;SDS011;63318;52.406;13.416;2022-09-09T07:24:09;4.10;;;1.50;;
74789;SDS011;63318;52.406;13.416;2022-09-09T07:26:38;3.90;;;1.40;;
74789;SDS011;63318;52.406;13.416;2022-09-09T07:29:07;3.50;;;1.80;;
74789;SDS011;63318;52.406;13.416;2022-09-09T07:31:36;5.10;;;1.50;;
74789;SDS011;63318;52.406;13.416;2022-09-09T07:34:06;7.00;;;1.90;;
74789;SDS011;63318;52.406;13.416;2022-09-09T07:36:35;7.80;;;1.80;;
74789;SDS011;63318;52.406;13.416;2022-09-09T07:39:05;6.80;;;3.80;;
74789;SDS011;63318;52.406;13.416;2022-09-09T07:41:35;4.50;;;1.60;;
74789;SDS011;63318;52.406;13.416;2022-09-09T07:44:06;6.40;;;1.80;;
74789;SDS011;63318;52.406;13.416;2022-09-09T07:46:36;4.50;;;1.50;;
74789;SDS011;63318;52.406;13.416;2022-09-09T07:49:05;4.20;;;1.30;;
74789;SDS011;63318;52.406;13.416;2022-09-09T07:51:35;5.20;;;1.30;;
74789;SDS011;63318;52.406;13.416;2022-09-09T07:54:05;5.30;;;1.50;;
74789;SDS011;63318;52.406;13.416;2022-09-09T07:56:35;4.90;;;1.30;;
74789;SDS011;63318;52.406;13.416;2022-09-09T07:59:04;4.10;;;1.60;;
74789;SDS011;63318;52.406;13.416;2022-09-09T08:01:33;3.80;;;1.50;;
74789;SDS011;63318;52.406;13.416;2022-09-09T08:04:04;5.30;;;1.40;;
74789;SDS011;63318;52.406;13.416;2022-09-09T08:06:35;5.40;;;1.30;;
74789;SDS011;63318;52.406;13.416;2022-09-09T08:09:05;5.90;;;1.20;;
74789;SDS011;63318;52.406;13.416;2022-09-09T08:11:35;3.90;;;1.20;;
74789;SDS011;63318;52.406;13.416;2022-09-09T08:14:04;4.80;;;1.40;;
74789;SDS011;63318;52.406;13.416;2022-09-09T08:16:34;3.60;;;1.40;;
74789;SDS011;63318;52.406;13.416;2022-09-09T08:19:04;5.10;;;1.20;;
74789;SDS011;63318;52.406;13.416;2022-09-09T08:21:34;6.50;;;1.40;;
74789;SDS011;63318;52.406;13.416;2022-09-09T08:24:04;4.50;;;1.60;;
74789;SDS011;63318;52.406;13.416;2022-09-09T08:26:33;4.20;;;1.40;;
74789;SDS011;63318;52.406;13.416;2022-09-09T08:29:03;4.70;;;1.20;;
74789;SDS011;63318;52.406;13.416;2022-09-09T08:31:34;3.40;;;1.20;;
74789;SDS011;63318;52.406;13.416;2022-09-09T08:34:04;3.40;;;1.50;;
74789;SDS011;63318;52.406;13.416;2022-09-09T08:36:33;4.10;;;1.30;;
74789;SDS011;63318;52.406;13.416;2022-09-09T08:39:03;4.30;;;1.50;;
74789;SDS011;63318;52.406;13.416;2022-09-09T08:41:37;4.70;;;1.40;;
74789;SDS011;63318;52.406;13.416;2022-09-09T08:44:14;4.90;;;1.50;;
74789;SDS011;63318;52.406;13.416;2022-09-09T08:46:50;3.40;;;1.50;;
74789;SDS011;63318;52.406;13.416;2022-09-09T08:49:34;4.60;;;1.40;;
74789;SDS011;63318;52.406;13.416;2022-09-09T08:52:15;4.20;;;1.20;;
74789;SDS011;63318;52.406;13.416;2022-09-09T08:54:46;3.50;;;1.10;;
74789;SDS011;63318;52.406;13.416;2022-09-09T08:57:19;4.80;;;1.40;;
74789;SDS011;63318;52.406;13.416;2022-09-09T08:59:51;4.00;;;1.20;;
74789;SDS011;63318;52.406;13.416;2022-09-09T09:02:22;5.20;;;1.50;;
74789;SDS011;63318;52.406;13.416;2022-09-09T09:05:05;5.20;;;1.40;;
74789;SDS011;63318;52.406;13.416;2022-09-09T09:07:46;3.40;;;1.20;;
74789;SDS011;63318;52.406;13.416;2022-09-09T09:10:29;5.10;;;1.30;;
74789;SDS011;63318;52.406;13.416;2022-09-09T09:13:10;6.20;;;1.30;;
74789;SDS011;63318;52.406;13.416;2022-09-09T09:15:45;8.20;;;1.60;;
74789;SDS011;63318;52.406;13.416;2022-09-09T09:18:16;3.50;;;1.40;;
74789;SDS011;63318;52.406;13.416;2022-09-09T09:20:48;4.30;;;1.30;;
74789;SDS011;63318;52.406;13.416;2022-09-09T09:23:22;4.60;;;1.40;;
74789;SDS011;63318;52.406;13.416;2022-09-09T09:25:53;4.10;;;1.10;;
74789;SDS011;63318;52.406;13.416;2022-09-09T09:28:26;4.30;;;1.20;;
74789;SDS011;63318;52.406;13.416;2022-09-09T09:30:56;6.50;;;1.50;;
74789;SDS011;63318;52.406;13.416;2022-09-09T09:33:31;6.00;;;1.40;;
74789;SDS011;63318;52.406;13.416;2022-09-09T09:36:05;4.80;;;1.20;;
74789;SDS011;63318;52.406;13.416;2022-09-09T09:38:34;3.00;;;1.10;;
74789;SDS011;63318;52.406;13.416;2022-09-09T09:41:03;3.60;;;1.00;;
74789;SDS011;63318;52.406;13.416;2022-09-09T09:43:33;2.70;;;1.00;;
74789;SDS011;63318;52.406;13.416;2022-09-09T09:46:04;5.30;;;1.20;;
74789;SDS011;63318;52.406;13.416;2022-09-09T09:48:45;4.40;;;1.00;;
74789;SDS011;63318;52.406;13.416;2022-09-09T09:51:24;4.10;;;1.60;;
74789;SDS011;63318;52.406;13.416;2022-09-09T09:53:54;5.30;;;1.30;;
74789;SDS011;63318;52.406;13.416;2022-09-09T09:56:35;6.90;;;1.30;;
74789;SDS011;63318;52.406;13.416;2022-09-09T09:59:05;3.70;;;1.10;;
74789;SDS011;63318;52.406;13.416;2022-09-09T10:01:45;2.80;;;1.00;;
74789;SDS011;63318;52.406;13.416;2022-09-09T10:04:15;4.80;;;1.20;;
74789;SDS011;63318;52.406;13.416;2022-09-09T10:06:45;3.50;;;1.10;;
74789;SDS011;63318;52.406;13.416;2022-09-09T10:09:22;4.80;;;1.10;;
74789;SDS011;63318;52.406;13.416;2022-09-09T10:11:55;3.10;;;0.90;;
74789;SDS011;63318;52.406;13.416;2022-09-09T10:14:30;3.20;;;1.10;;
74789;SDS011;63318;52.406;13.416;2022-09-09T10:17:08;4.60;;;1.00;;
74789;SDS011;63318;52.406;13.416;2022-09-09T10:19:48;4.70;;;1.10;;
74789;SDS011;63318;52.406;13.416;2022-09-09T10:22:27;4.90;;;0.90;;
74789;SDS011;63318;52.406;13.416;2022-09-09T10:28:06;3.60;;;1.10;;
74789;SDS011;63318;52.406;13.416;2022-09-09T10:30:52;4.90;;;0.90;;
74789;SDS011;63318;52.406;13.416;2022-09-09T10:33:28;4.70;;;1.00;;
74789;SDS011;63318;52.406;13.416;2022-09-09T10:36:05;4.80;;;1.20;;
74789;SDS011;63318;52.406;13.416;2022-09-09T10:38:40;2.90;;;1.10;;
74789;SDS011;63318;52.406;13.416;2022-09-09T10:41:14;4.80;;;1.20;;
74789;SDS011;63318;52.406;13.416;2022-09-09T10:44:01;4.50;;;1.10;;
74789;SDS011;63318;52.406;13.416;2022-09-09T10:46:48;3.90;;;1.00;;
74789;SDS011;63318;52.406;13.416;2022-09-09T10:49:39;2.80;;;0.90;;
74789;SDS011;63318;52.406;13.416;2022-09-09T10:52:26;4.60;;;1.00;;
74789;SDS011;63318;52.406;13.416;2022-09-09T10:54:59;2.70;;;0.90;;
74789;SDS011;63318;52.406;13.416;2022-09-09T10:57:36;5.60;;;1.00;;
74789;SDS011;63318;52.406;13.416;2022-09-09T11:00:13;3.00;;;0.80;;
74789;SDS011;63318;52.406;13.416;2022-09-09T11:02:44;2.90;;;0.80;;
74789;SDS011;63318;52.406;13.416;2022-09-09T11:05:18;4.90;;;1.00;;
74789;SDS011;63318;52.406;13.416;2022-09-09T11:07:52;2.70;;;0.80;;
74789;SDS011;63318;52.406;13.416;2022-09-09T11:10:26;3.10;;;1.00;;
74789;SDS011;63318;52.406;13.416;2022-09-09T11:13:03;4.40;;;1.10;;
74789;SDS011;63318;52.406;13.416;2022-09-09T11:15:41;5.10;;;1.00;;
74789;SDS011;63318;52.406;13.416;2022-09-09T11:18:13;5.30;;;0.90;;
74789;SDS011;63318;52.406;13.416;2022-09-09T11:20:45;4.00;;;1.40;;
74789;SDS011;63318;52.406;13.416;2022-09-09T11:23:18;3.10;;;0.80;;
74789;SDS011;63318;52.406;13.416;2022-09-09T11:25:55;4.20;;;0.80;;
74789;SDS011;63318;52.406;13.416;2022-09-09T11:28:31;4.20;;;1.00;;
74789;SDS011;63318;52.406;13.416;2022-09-09T11:31:10;4.50;;;1.10;;
74789;SDS011;63318;52.406;13.416;2022-09-09T11:36:56;5.80;;;1.00;;
74789;SDS011;63318;52.406;13.416;2022-09-09T11:39:47;4.00;;;0.90;;
74789;SDS011;63318;52.406;13.416;2022-09-09T11:42:35;3.40;;;0.80;;
74789;SDS011;63318;52.406;13.416;2022-09-09T11:45:10;2.30;;;0.70;;
74789;SDS011;63318;52.406;13.416;2022-09-09T11:47:52;4.50;;;0.90;;
74789;SDS011;63318;52.406;13.416;2022-09-09T11:50:29;2.50;;;0.70;;
74789;SDS011;63318;52.406;13.416;2022-09-09T11:53:18;2.90;;;0.70;;
74789;SDS011;63318;52.406;13.416;2022-09-09T11:55:48;1.60;;;0.60;;
74789;SDS011;63318;52.406;13.416;2022-09-09T11:58:33;4.30;;;0.70;;
74789;SDS011;63318;52.406;13.416;2022-09-09T12:01:14;3.60;;;0.70;;
74789;SDS011;63318;52.406;13.416;2022-09-09T12:04:00;3.10;;;0.60;;
74789;SDS011;63318;52.406;13.416;2022-09-09T12:06:43;4.70;;;0.90;;
74789;SDS011;63318;52.406;13.416;2022-09-09T12:09:17;3.20;;;0.70;;
74789;SDS011;63318;52.406;13.416;2022-09-09T12:11:50;4.30;;;0.90;;
74789;SDS011;63318;52.406;13.416;2022-09-09T12:14:23;3.70;;;1.00;;
74789;SDS011;63318;52.406;13.416;2022-09-09T12:17:10;2.60;;;0.60;;
74789;SDS011;63318;52.406;13.416;2022-09-09T12:19:47;3.70;;;0.90;;
74789;SDS011;63318;52.406;13.416;2022-09-09T12:22:27;2.80;;;0.80;;
74789;SDS011;63318;52.406;13.416;2022-09-09T12:25:03;3.60;;;0.90;;
74789;SDS011;63318;52.406;13.416;2022-09-09T12:27:43;2.50;;;0.70;;
74789;SDS011;63318;52.406;13.416;2022-09-09T12:30:22;4.40;;;0.80;;
74789;SDS011;63318;52.406;13.416;2022-09-09T12:33:00;2.50;;;0.70;;
74789;SDS011;63318;52.406;13.416;2022-09-09T12:35:35;2.40;;;0.60;;
74789;SDS011;63318;52.406;13.416;2022-09-09T12:38:04;4.10;;;0.70;;
74789;SDS011;63318;52.406;13.416;2022-09-09T12:40:37;3.50;;;0.80;;
74789;SDS011;63318;52.406;13.416;2022-09-09T12:43:16;3.50;;;0.80;;
74789;SDS011;63318;52.406;13.416;2022-09-09T12:45:46;3.80;;;0.80;;
74789;SDS011;63318;52.406;13.416;2022-09-09T12:48:16;3.50;;;0.70;;
74789;SDS011;63318;52.406;13.416;2022-09-09T12:50:47;4.00;;;0.80;;
74789;SDS011;63318;52.406;13.416;2022-09-09T12:53:19;3.10;;;0.80;;
74789;SDS011;63318;52.406;13.416;2022-09-09T12:55:52;3.20;;;0.70;;
74789;SDS011;63318;52.406;13.416;2022-09-09T12:58:22;4.50;;;0.80;;
74789;SDS011;63318;52.406;13.416;2022-09-09T13:00:52;3.70;;;0.70;;
74789;SDS011;63318;52.406;13.416;2022-09-09T13:03:22;3.70;;;0.80;;
74789;SDS011;63318;52.406;13.416;2022-09-09T13:05:51;3.10;;;0.90;;
74789;SDS011;63318;52.406;13.416;2022-09-09T13:08:20;3.50;;;0.70;;
74789;SDS011;63318;52.406;13.416;2022-09-09T13:10:49;3.20;;;0.90;;
74789;SDS011;63318;52.406;13.416;2022-09-09T13:13:21;4.40;;;1.00;;
74789;SDS011;63318;52.406;13.416;2022-09-09T13:15:52;3.50;;;0.80;;
74789;SDS011;63318;52.406;13.416;2022-09-09T13:18:23;3.30;;;0.90;;
74789;SDS011;63318;52.406;13.416;2022-09-09T13:20:54;4.70;;;0.90;;
74789;SDS011;63318;52.406;13.416;2022-09-09T13:23:24;3.50;;;0.80;;
74789;SDS011;63318;52.406;13.416;2022-09-09T13:25:56;2.50;;;0.70;;
74789;SDS011;63318;52.406;13.416;2022-09-09T13:28:27;4.30;;;1.00;;
74789;SDS011;63318;52.406;13.416;2022-09-09T13:30:59;2.20;;;0.60;;
74789;SDS011;63318;52.406;13.416;2022-09-09T13:33:33;5.00;;;0.90;;
74789;SDS011;63318;52.406;13.416;2022-09-09T13:36:03;4.00;;;1.00;;
74789;SDS011;63318;52.406;13.416;2022-09-09T13:38:35;4.90;;;1.10;;
74789;SDS011;63318;52.406;13.416;2022-09-09T13:41:05;4.60;;;1.20;;
74789;SDS011;63318;52.406;13.416;2022-09-09T13:43:37;3.00;;;1.20;;
74789;SDS011;63318;52.406;13.416;2022-09-09T13:46:23;2.40;;;0.80;;
74789;SDS011;63318;52.406;13.416;2022-09-09T13:48:55;2.50;;;0.90;;
74789;SDS011;63318;52.406;13.416;2022-09-09T13:51:28;5.70;;;1.40;;
74789;SDS011;63318;52.406;13.416;2022-09-09T13:53:59;5.90;;;0.90;;
74789;SDS011;63318;52.406;13.416;2022-09-09T13:56:27;4.70;;;1.20;;
74789;SDS011;63318;52.406;13.416;2022-09-09T13:58:56;3.00;;;0.90;;
74789;SDS011;63318;52.406;13.416;2022-09-09T14:01:24;5.30;;;1.10;;
74789;SDS011;63318;52.406;13.416;2022-09-09T14:03:52;3.00;;;0.80;;
74789;SDS011;63318;52.406;13.416;2022-09-09T14:06:21;5.90;;;1.20;;
74789;SDS011;63318;52.406;13.416;2022-09-09T14:08:50;3.20;;;0.70;;
74789;SDS011;63318;52.406;13.416;2022-09-09T14:11:18;3.30;;;0.80;;
74789;SDS011;63318;52.406;13.416;2022-09-09T14:13:47;4.40;;;1.10;;
74789;SDS011;63318;52.406;13.416;2022-09-09T14:16:15;3.70;;;1.00;;
74789;SDS011;63318;52.406;13.416;2022-09-09T14:18:43;2.70;;;1.10;;
74789;SDS011;63318;52.406;13.416;2022-09-09T14:21:12;3.60;;;0.90;;
74789;SDS011;63318;52.406;13.416;2022-09-09T14:23:40;2.80;;;0.80;;
74789;SDS011;63318;52.406;13.416;2022-09-09T14:26:09;4.70;;;1.00;;
74789;SDS011;63318;52.406;13.416;2022-09-09T14:28:37;5.20;;;1.20;;
74789;SDS011;63318;52.406;13.416;2022-09-09T14:31:05;3.40;;;0.80;;
74789;SDS011;63318;52.406;13.416;2022-09-09T14:33:34;4.70;;;1.20;;
74789;SDS011;63318;52.406;13.416;2022-09-09T14:36:03;5.50;;;1.10;;
74789;SDS011;63318;52.406;13.416;2022-09-09T14:38:33;4.10;;;1.00;;
74789;SDS011;63318;52.406;13.416;2022-09-09T14:41:03;4.70;;;1.00;;
74789;SDS011;63318;52.406;13.416;2022-09-09T14:43:31;6.60;;;1.20;;
74789;SDS011;63318;52.406;13.416;2022-09-09T14:46:05;2.70;;;0.80;;
74789;SDS011;63318;52.406;13.416;2022-09-09T14:48:34;2.30;;;0.90;;
74789;SDS011;63318;52.406;13.416;2022-09-09T14:51:07;3.40;;;0.90;;
74789;SDS011;63318;52.406;13.416;2022-09-09T14:53:37;4.70;;;0.90;;
74789;SDS011;63318;52.406;13.416;2022-09-09T14:56:07;2.80;;;0.70;;
74789;SDS011;63318;52.406;13.416;2022-09-09T14:58:37;2.30;;;0.70;;
74789;SDS011;63318;52.406;13.416;2022-09-09T15:01:06;4.70;;;0.90;;
74789;SDS011;63318;52.406;13.416;2022-09-09T15:03:35;4.30;;;1.40;;
74789;SDS011;63318;52.406;13.416;2022-09-09T15:06:07;4.20;;;1.20;;
74789;SDS011;63318;52.406;13.416;2022-09-09T15:08:38;4.60;;;1.60;;
74789;SDS011;63318;52.406;13.416;2022-09-09T15:11:08;4.20;;;1.30;;